Time;durP1;ratioP1;P1;durP2;ratioP2;P2;SDS_P1;SDS_P2;PMS_P1;PMS_P2;Temp;Humidity;BMP_temperature;BMP_pressure;BME280_temperature;BME280_humidity;BME280_pressure;Samples;Min_cycle;Max_cycle;Signal;HPM_P1;HPM_P2
2022/11/20 00:01:17;;;;;;;2.92;2.60;;;;;;;;;;5105293;27;43492;-58
2022/11/20 00:03:46;;;;;;;2.80;2.60;;;;;;;;;;5102974;27;43406;-58
2022/11/20 00:06:15;;;;;;;2.50;2.30;;;;;;;;;;5107535;27;43518;-58
2022/11/20 00:08:43;;;;;;;2.60;2.40;;;;;;;;;;5104167;27;45001;-58
2022/11/20 00:11:16;;;;;;;2.40;2.20;;;;;;;;;;5088590;27;43461;-58
2022/11/20 00:13:48;;;;;;;2.63;2.47;;;;;;;;;;5103235;27;43568;-58
2022/11/20 00:16:18;;;;;;;2.80;2.60;;;;;;;;;;5102915;27;43360;-58
2022/11/20 00:18:46;;;;;;;2.63;2.42;;;;;;;;;;5103713;27;43683;-58
2022/11/20 00:21:15;;;;;;;2.55;2.35;;;;;;;;;;5102999;27;43852;-58
2022/11/20 00:23:43;;;;;;;2.45;2.25;;;;;;;;;;5102808;27;43480;-58
2022/11/20 00:26:12;;;;;;;2.75;2.55;;;;;;;;;;5104142;27;43524;-58
2022/11/20 00:28:40;;;;;;;2.55;2.35;;;;;;;;;;5105571;27;43860;-58
2022/11/20 00:31:13;;;;;;;2.60;2.40;;;;;;;;;;5102724;27;43432;-58
2022/11/20 00:33:41;;;;;;;2.60;2.40;;;;;;;;;;5105264;27;43521;-58
2022/11/20 00:36:14;;;;;;;2.40;2.20;;;;;;;;;;5105470;27;43419;-58
2022/11/20 00:38:42;;;;;;;2.38;2.17;;;;;;;;;;5107638;27;43868;-58
2022/11/20 00:41:10;;;;;;;2.65;2.45;;;;;;;;;;5106099;27;43475;-58
2022/11/20 00:43:38;;;;;;;2.40;2.20;;;;;;;;;;5105788;27;43423;-58
2022/11/20 00:46:08;;;;;;;3.03;2.40;;;;;;;;;;5105389;27;43518;-58
2022/11/20 00:48:36;;;;;;;2.85;2.65;;;;;;;;;;5110445;27;45198;-58
2022/11/20 00:51:04;;;;;;;2.30;2.20;;;;;;;;;;5110058;27;43821;-58
2022/11/20 00:53:32;;;;;;;2.53;2.30;;;;;;;;;;5106206;27;43459;-58
2022/11/20 00:56:01;;;;;;;2.60;2.40;;;;;;;;;;5104344;27;43491;-58
2022/11/20 00:58:33;;;;;;;2.92;2.63;;;;;;;;;;5111302;27;44990;-58
2022/11/20 01:01:02;;;;;;;2.42;2.22;;;;;;;;;;5106265;27;43385;-58
2022/11/20 01:03:32;;;;;;;2.45;2.25;;;;;;;;;;5104975;27;43924;-58
2022/11/20 01:06:01;;;;;;;2.90;2.60;;;;;;;;;;5106139;27;43459;-58
2022/11/20 01:08:32;;;;;;;3.00;2.40;;;;;;;;;;5105118;27;44706;-58
2022/11/20 01:11:01;;;;;;;2.75;2.55;;;;;;;;;;5105155;27;43526;-58
2022/11/20 01:13:40;;;;;;;3.45;2.53;;;;;;;;;;5091791;27;43462;-58
2022/11/20 01:16:09;;;;;;;2.78;2.58;;;;;;;;;;5106458;27;43561;-58
2022/11/20 01:18:38;;;;;;;3.13;2.83;;;;;;;;;;5105656;27;44038;-58
2022/11/20 01:21:08;;;;;;;2.97;2.65;;;;;;;;;;5111205;27;43494;-58
2022/11/20 01:23:37;;;;;;;3.30;3.00;;;;;;;;;;5106390;27;43403;-58
2022/11/20 01:26:06;;;;;;;2.60;2.40;;;;;;;;;;5106625;27;43805;-58
2022/11/20 01:28:34;;;;;;;3.17;2.75;;;;;;;;;;5105779;27;44769;-58
2022/11/20 01:31:02;;;;;;;2.97;2.65;;;;;;;;;;5106471;27;43865;-58
2022/11/20 01:33:30;;;;;;;3.33;2.80;;;;;;;;;;5108082;27;43481;-58
2022/11/20 01:36:04;;;;;;;3.03;2.72;;;;;;;;;;5091088;27;43545;-58
2022/11/20 01:38:32;;;;;;;3.80;2.88;;;;;;;;;;5098846;27;43702;-58
2022/11/20 01:41:00;;;;;;;2.65;2.40;;;;;;;;;;5108591;27;43474;-58
2022/11/20 01:43:28;;;;;;;3.67;2.72;;;;;;;;;;5104722;27;43383;-57
2022/11/20 01:46:02;;;;;;;2.85;2.30;;;;;;;;;;5100914;27;43489;-58
2022/11/20 01:48:38;;;;;;;2.70;2.47;;;;;;;;;;5104159;27;43996;-58
2022/11/20 01:51:13;;;;;;;2.97;2.67;;;;;;;;;;5105490;27;43470;-58
2022/11/20 01:53:42;;;;;;;2.70;2.50;;;;;;;;;;5086237;27;43459;-58
2022/11/20 01:56:12;;;;;;;2.58;2.38;;;;;;;;;;5105211;27;43482;-58
2022/11/20 01:58:42;;;;;;;3.17;2.83;;;;;;;;;;5105292;27;44731;-58
2022/11/20 02:01:10;;;;;;;2.80;2.60;;;;;;;;;;5105462;27;43460;-58
2022/11/20 02:03:40;;;;;;;2.78;2.40;;;;;;;;;;5106595;27;43942;-59
2022/11/20 02:06:12;;;;;;;3.08;2.58;;;;;;;;;;5105114;27;43430;-58
2022/11/20 02:08:40;;;;;;;2.90;2.60;;;;;;;;;;5103111;27;43983;-58
2022/11/20 02:11:08;;;;;;;3.05;2.65;;;;;;;;;;5105766;27;43451;-58
2022/11/20 02:13:45;;;;;;;2.97;2.50;;;;;;;;;;5104075;27;43379;-58
2022/11/20 02:16:22;;;;;;;2.97;2.53;;;;;;;;;;5104668;27;43558;-58
2022/11/20 02:18:50;;;;;;;3.00;2.30;;;;;;;;;;5109777;27;44742;-58
2022/11/20 02:21:28;;;;;;;2.50;2.30;;;;;;;;;;5085664;27;43553;-58
2022/11/20 02:24:06;;;;;;;3.05;2.60;;;;;;;;;;5104593;27;43389;-58
2022/11/20 02:26:47;;;;;;;2.72;2.53;;;;;;;;;;5104625;27;43398;-58
2022/11/20 02:29:15;;;;;;;;;;;;;;;;;;5106275;27;44776;-58
2022/11/20 02:31:44;;;;;;;2.40;2.20;;;;;;;;;;5105015;27;43445;-58
2022/11/20 02:34:11;;;;;;;2.60;2.40;;;;;;;;;;5103617;27;43467;-58
2022/11/20 02:36:42;;;;;;;3.13;2.50;;;;;;;;;;5105239;27;43466;-58
2022/11/20 02:39:12;;;;;;;2.78;2.58;;;;;;;;;;5110152;27;43810;-58
2022/11/20 02:41:40;;;;;;;2.75;2.55;;;;;;;;;;5104083;27;44026;-58
2022/11/20 02:44:08;;;;;;;2.63;2.40;;;;;;;;;;5103951;27;43429;-58
2022/11/20 02:46:35;;;;;;;2.70;2.50;;;;;;;;;;5107543;27;43473;-58
2022/11/20 02:49:04;;;;;;;2.40;2.20;;;;;;;;;;5104267;27;43781;-58
2022/11/20 02:51:32;;;;;;;2.95;2.30;;;;;;;;;;5109641;27;44022;-58
2022/11/20 02:54:00;;;;;;;2.50;2.30;;;;;;;;;;5108692;27;43453;-58
2022/11/20 02:56:28;;;;;;;2.60;2.40;;;;;;;;;;5103893;27;43522;-58
2022/11/20 02:58:56;;;;;;;2.35;2.15;;;;;;;;;;5103481;27;44702;-58
2022/11/20 03:01:24;;;;;;;2.78;2.40;;;;;;;;;;5103999;27;43643;-58
2022/11/20 03:03:54;;;;;;;2.53;2.33;;;;;;;;;;5103563;27;43465;-58
2022/11/20 03:06:22;;;;;;;2.37;2.20;;;;;;;;;;5105034;27;43495;-58
2022/11/20 03:08:50;;;;;;;2.83;2.63;;;;;;;;;;5098090;27;44988;-58
2022/11/20 03:11:18;;;;;;;2.65;2.45;;;;;;;;;;5106320;27;43698;-58
2022/11/20 03:13:46;;;;;;;2.47;2.28;;;;;;;;;;5104082;27;43329;-58
2022/11/20 03:16:15;;;;;;;2.58;2.38;;;;;;;;;;5104726;27;43482;-58
2022/11/20 03:18:43;;;;;;;2.70;2.50;;;;;;;;;;5107988;27;44679;-58
2022/11/20 03:21:12;;;;;;;2.70;2.50;;;;;;;;;;5103681;27;44030;-58
2022/11/20 03:23:40;;;;;;;2.83;2.63;;;;;;;;;;5108931;27;43537;-58
2022/11/20 03:26:14;;;;;;;3.08;2.80;;;;;;;;;;5103275;27;43479;-58
2022/11/20 03:28:43;;;;;;;2.70;2.50;;;;;;;;;;5104028;27;44730;-58
2022/11/20 03:31:12;;;;;;;2.50;2.30;;;;;;;;;;5103108;27;43676;-58
2022/11/20 03:33:41;;;;;;;2.83;2.63;;;;;;;;;;5104654;27;43420;-58
2022/11/20 03:36:10;;;;;;;2.55;2.35;;;;;;;;;;5103794;27;43487;-58
2022/11/20 03:38:38;;;;;;;3.20;2.90;;;;;;;;;;5102994;27;43990;-58
2022/11/20 03:41:09;;;;;;;2.95;2.70;;;;;;;;;;5103524;27;43378;-58
2022/11/20 03:43:36;;;;;;;2.60;2.40;;;;;;;;;;5104539;27;43422;-58
2022/11/20 03:46:05;;;;;;;2.45;2.25;;;;;;;;;;5103371;27;43406;-58
2022/11/20 03:48:32;;;;;;;2.85;2.60;;;;;;;;;;5102986;27;43794;-58
2022/11/20 03:51:11;;;;;;;2.60;2.40;;;;;;;;;;5108382;27;43520;-58
2022/11/20 03:53:43;;;;;;;2.70;2.50;;;;;;;;;;5106516;27;43418;-58
2022/11/20 03:56:12;;;;;;;2.92;2.72;;;;;;;;;;5097286;27;43476;-58
2022/11/20 03:58:40;;;;;;;3.22;2.92;;;;;;;;;;5103396;27;44066;-58
2022/11/20 04:01:14;;;;;;;3.42;3.13;;;;;;;;;;5103228;27;43458;-58
2022/11/20 04:03:43;;;;;;;3.00;2.70;;;;;;;;;;5105863;27;43468;-57
2022/11/20 04:06:18;;;;;;;3.78;3.47;;;;;;;;;;5107643;27;43572;-58
2022/11/20 04:08:46;;;;;;;3.45;3.15;;;;;;;;;;5081818;27;45326;-58
2022/11/20 04:11:20;;;;;;;3.80;3.17;;;;;;;;;;5105707;27;44111;-58
2022/11/20 04:13:50;;;;;;;3.47;3.15;;;;;;;;;;5110091;27;43479;-58
2022/11/20 04:16:18;;;;;;;3.45;3.15;;;;;;;;;;5106958;27;43501;-58
2022/11/20 04:18:46;;;;;;;3.50;3.20;;;;;;;;;;5116168;27;43816;-58
2022/11/20 04:21:14;;;;;;;3.67;3.38;;;;;;;;;;5105966;27;44017;-58
2022/11/20 04:23:42;;;;;;;3.50;3.20;;;;;;;;;;5102108;27;43369;-58
2022/11/20 04:26:11;;;;;;;3.28;2.97;;;;;;;;;;5111357;27;43427;-58
2022/11/20 04:28:39;;;;;;;3.42;3.13;;;;;;;;;;5106991;27;43993;-58
2022/11/20 04:31:08;;;;;;;3.55;3.25;;;;;;;;;;5106453;27;43482;-58
2022/11/20 04:33:37;;;;;;;3.80;3.50;;;;;;;;;;5099761;27;43461;-58
2022/11/20 04:36:08;;;;;;;3.80;3.30;;;;;;;;;;5106201;27;43436;-58
2022/11/20 04:38:36;;;;;;;3.53;3.17;;;;;;;;;;5112066;27;45088;-59
2022/11/20 04:41:05;;;;;;;3.97;3.42;;;;;;;;;;5106456;27;43992;-59
2022/11/20 04:43:34;;;;;;;3.28;2.97;;;;;;;;;;5106316;27;43424;-59
2022/11/20 04:46:02;;;;;;;3.72;3.38;;;;;;;;;;5113579;27;43392;-59
2022/11/20 04:48:30;;;;;;;4.18;3.55;;;;;;;;;;5106570;27;43810;-59
2022/11/20 04:50:58;;;;;;;3.67;3.38;;;;;;;;;;5106060;27;45064;-59
2022/11/20 04:53:26;;;;;;;3.83;3.50;;;;;;;;;;5104063;27;43427;-58
2022/11/20 04:56:00;;;;;;;3.50;3.20;;;;;;;;;;5105828;27;43556;-59
2022/11/20 04:58:27;;;;;;;3.80;3.50;;;;;;;;;;5091390;27;44092;-59
2022/11/20 05:01:06;;;;;;;3.50;3.20;;;;;;;;;;5092664;27;44317;-59
2022/11/20 05:03:34;;;;;;;3.63;3.33;;;;;;;;;;5105296;27;43469;-59
2022/11/20 05:06:09;;;;;;;2.90;2.70;;;;;;;;;;5107091;27;43557;-59
2022/11/20 05:08:37;;;;;;;3.28;3.00;;;;;;;;;;5106118;27;44048;-59
2022/11/20 05:11:12;;;;;;;3.50;3.17;;;;;;;;;;5105836;27;43377;-59
2022/11/20 05:13:40;;;;;;;3.53;3.20;;;;;;;;;;5100892;27;43565;-59
2022/11/20 05:16:09;;;;;;;3.13;2.83;;;;;;;;;;5106754;27;43943;-59
2022/11/20 05:18:37;;;;;;;3.47;3.17;;;;;;;;;;5105558;27;44052;-59
2022/11/20 05:21:06;;;;;;;2.80;2.60;;;;;;;;;;5090671;27;43352;-59
2022/11/20 05:23:34;;;;;;;3.30;3.00;;;;;;;;;;5102783;27;43516;-59
2022/11/20 05:26:02;;;;;;;3.28;2.97;;;;;;;;;;5112318;27;43487;-59
2022/11/20 05:28:30;;;;;;;2.90;2.70;;;;;;;;;;5090108;27;45470;-60
2022/11/20 05:31:05;;;;;;;3.13;2.92;;;;;;;;;;5105248;27;43703;-59
2022/11/20 05:33:33;;;;;;;2.90;2.70;;;;;;;;;;5105742;27;43450;-59
2022/11/20 05:36:02;;;;;;;3.08;2.83;;;;;;;;;;5105924;27;43547;-59
2022/11/20 05:38:30;;;;;;;3.05;2.75;;;;;;;;;;5106825;27;44812;-59
2022/11/20 05:41:07;;;;;;;2.72;2.53;;;;;;;;;;5105749;27;43460;-59
2022/11/20 05:43:37;;;;;;;2.78;2.58;;;;;;;;;;5106093;27;43422;-59
2022/11/20 05:46:05;;;;;;;2.97;2.78;;;;;;;;;;5105287;27;43403;-59
2022/11/20 05:48:33;;;;;;;2.95;2.75;;;;;;;;;;5105078;27;43917;-59
2022/11/20 05:51:02;;;;;;;3.10;2.90;;;;;;;;;;5100447;27;43452;-59
2022/11/20 05:53:30;;;;;;;2.42;2.22;;;;;;;;;;5105481;27;43393;-59
2022/11/20 05:55:58;;;;;;;3.00;2.80;;;;;;;;;;5105894;27;43445;-59
2022/11/20 05:58:27;;;;;;;3.17;2.88;;;;;;;;;;5104121;27;44055;-60
2022/11/20 06:00:55;;;;;;;3.03;2.60;;;;;;;;;;5105555;27;43990;-60
2022/11/20 06:03:22;;;;;;;3.10;2.80;;;;;;;;;;5108616;27;43874;-59
2022/11/20 06:05:50;;;;;;;2.70;2.50;;;;;;;;;;5109313;27;43597;-60
2022/11/20 06:08:18;;;;;;;2.80;2.53;;;;;;;;;;5085701;27;44578;-59
2022/11/20 06:10:46;;;;;;;2.88;2.67;;;;;;;;;;5105321;27;43377;-59
2022/11/20 06:13:14;;;;;;;2.80;2.60;;;;;;;;;;5089704;27;43513;-60
2022/11/20 06:15:41;;;;;;;3.40;3.10;;;;;;;;;;5105367;27;43612;-60
2022/11/20 06:18:09;;;;;;;3.00;2.80;;;;;;;;;;5104029;27;45088;-60
2022/11/20 06:20:37;;;;;;;3.10;2.90;;;;;;;;;;5104495;27;43361;-60
2022/11/20 06:23:08;;;;;;;3.28;3.08;;;;;;;;;;5104128;27;43442;-59
2022/11/20 06:25:43;;;;;;;3.20;3.00;;;;;;;;;;5107274;27;43546;-59
2022/11/20 06:28:11;;;;;;;2.95;2.75;;;;;;;;;;5103958;27;44723;-59
2022/11/20 06:30:45;;;;;;;3.80;3.20;;;;;;;;;;5110184;27;43408;-60
2022/11/20 06:33:13;;;;;;;3.15;2.90;;;;;;;;;;5100033;27;43490;-60
2022/11/20 06:35:41;;;;;;;3.97;3.45;;;;;;;;;;5104582;27;43441;-60
2022/11/20 06:38:09;;;;;;;3.42;3.13;;;;;;;;;;5103146;27;43789;-60
2022/11/20 06:40:36;;;;;;;3.13;2.83;;;;;;;;;;5099674;27;43355;-59
2022/11/20 06:43:04;;;;;;;3.55;3.25;;;;;;;;;;5085293;27;43467;-59
2022/11/20 06:45:32;;;;;;;3.40;3.10;;;;;;;;;;5102688;27;43472;-60
2022/11/20 06:48:00;;;;;;;3.10;2.90;;;;;;;;;;5106712;27;43804;-59
2022/11/20 06:50:27;;;;;;;3.60;3.30;;;;;;;;;;5104949;27;43466;-61
2022/11/20 06:52:55;;;;;;;3.60;3.30;;;;;;;;;;5104230;27;43447;-60
2022/11/20 06:55:23;;;;;;;3.13;2.90;;;;;;;;;;5099688;27;43628;-60
2022/11/20 06:57:51;;;;;;;2.90;2.70;;;;;;;;;;5103605;27;43887;-60
2022/11/20 07:00:22;;;;;;;;;;;;;;;;;;5106038;27;43439;-60
2022/11/20 07:02:50;;;;;;;2.95;2.75;;;;;;;;;;5099121;27;43373;-60
2022/11/20 07:05:18;;;;;;;3.10;2.90;;;;;;;;;;5103203;27;43438;-60
2022/11/20 07:07:45;;;;;;;3.20;2.90;;;;;;;;;;5103098;27;44720;-60
2022/11/20 07:10:13;;;;;;;2.80;2.60;;;;;;;;;;5102912;27;43409;-60
2022/11/20 07:12:41;;;;;;;3.15;2.88;;;;;;;;;;5099567;27;44411;-60
2022/11/20 07:15:09;;;;;;;3.17;2.97;;;;;;;;;;5103108;27;43560;-60
2022/11/20 07:17:37;;;;;;;2.80;2.60;;;;;;;;;;5102535;27;44995;-60
2022/11/20 07:20:05;;;;;;;2.88;2.65;;;;;;;;;;5103368;27;43383;-60
2022/11/20 07:22:33;;;;;;;3.13;2.92;;;;;;;;;;5108063;27;43372;-60
2022/11/20 07:25:01;;;;;;;2.45;2.28;;;;;;;;;;5103296;27;43498;-60
2022/11/20 07:27:29;;;;;;;2.80;2.60;;;;;;;;;;5103815;27;44061;-60
2022/11/20 07:29:57;;;;;;;3.30;2.85;;;;;;;;;;5107078;27;43384;-60
2022/11/20 07:32:25;;;;;;;3.15;2.90;;;;;;;;;;5082429;27;43465;-60
2022/11/20 07:34:53;;;;;;;3.83;2.85;;;;;;;;;;5102001;27;43489;-60
2022/11/20 07:37:20;;;;;;;4.15;3.08;;;;;;;;;;5102285;27;45014;-59
2022/11/20 07:39:48;;;;;;;2.97;2.67;;;;;;;;;;5101373;27;43484;-59
2022/11/20 07:42:16;;;;;;;9.40;3.03;;;;;;;;;;5103188;27;43469;-60
2022/11/20 07:44:44;;;;;;;2.60;2.40;;;;;;;;;;5108814;27;43443;-59
2022/11/20 07:47:11;;;;;;;3.88;2.75;;;;;;;;;;5106355;27;45023;-60
2022/11/20 07:49:39;;;;;;;2.83;2.42;;;;;;;;;;5110662;27;43700;-60
2022/11/20 07:52:07;;;;;;;3.13;2.50;;;;;;;;;;5100028;27;43996;-60
2022/11/20 07:54:35;;;;;;;3.03;2.72;;;;;;;;;;5107292;27;43926;-56
2022/11/20 07:57:02;;;;;;;3.00;2.75;;;;;;;;;;5103523;27;43900;-59
2022/11/20 07:59:30;;;;;;;2.53;2.33;;;;;;;;;;5101170;27;43673;-59
2022/11/20 08:01:58;;;;;;;2.78;2.58;;;;;;;;;;5106565;27;43410;-59
2022/11/20 08:04:26;;;;;;;2.58;2.38;;;;;;;;;;5109036;27;43469;-59
2022/11/20 08:06:54;;;;;;;2.45;2.25;;;;;;;;;;5099797;27;44050;-59
2022/11/20 08:09:22;;;;;;;2.83;2.40;;;;;;;;;;5111200;27;43706;-59
2022/11/20 08:14:36;;;;;;;3.10;2.80;;;;;;;;;;5106688;27;43405;-59
2022/11/20 08:17:04;;;;;;;3.15;2.90;;;;;;;;;;5107338;27;43795;-59
2022/11/20 08:19:32;;;;;;;4.72;2.90;;;;;;;;;;5086675;27;43392;-59
2022/11/20 08:22:00;;;;;;;4.53;2.60;;;;;;;;;;5106796;27;43479;-59
2022/11/20 08:24:28;;;;;;;3.80;2.53;;;;;;;;;;5105112;27;43502;-59
2022/11/20 08:26:58;;;;;;;2.70;2.50;;;;;;;;;;5087675;27;43885;-58
2022/11/20 08:29:29;;;;;;;3.30;2.40;;;;;;;;;;5106132;27;43466;-59
2022/11/20 08:31:57;;;;;;;3.33;2.40;;;;;;;;;;5105872;27;43564;-59
2022/11/20 08:34:25;;;;;;;2.95;2.38;;;;;;;;;;5093765;27;43514;-60
2022/11/20 08:36:53;;;;;;;4.63;2.28;;;;;;;;;;5105058;27;45008;-60
2022/11/20 08:39:21;;;;;;;3.03;2.20;;;;;;;;;;5105980;27;43685;-61
2022/11/20 08:41:48;;;;;;;3.92;2.40;;;;;;;;;;5087170;27;43430;-62
2022/11/20 08:44:17;;;;;;;2.70;1.95;;;;;;;;;;5105260;27;43447;-62
2022/11/20 08:46:46;;;;;;;2.20;2.00;;;;;;;;;;5106299;27;44029;-62
2022/11/20 08:49:14;;;;;;;2.63;2.03;;;;;;;;;;5104770;27;44053;-61
2022/11/20 08:51:43;;;;;;;2.08;1.75;;;;;;;;;;5103640;27;43389;-60
2022/11/20 08:54:11;;;;;;;2.42;2.00;;;;;;;;;;5102653;27;43609;-60
2022/11/20 08:56:38;;;;;;;4.20;1.90;;;;;;;;;;5102832;27;43747;-62
2022/11/20 08:59:06;;;;;;;5.95;2.10;;;;;;;;;;5104436;27;43519;-61
2022/11/20 09:01:54;;;;;;;2.15;1.98;;;;;;;;;;5100922;27;43513;-60
2022/11/20 09:04:22;;;;;;;3.78;1.70;;;;;;;;;;5105004;27;43522;-60
2022/11/20 09:06:51;;;;;;;1.60;1.50;;;;;;;;;;5106240;27;44137;-60
2022/11/20 09:09:18;;;;;;;2.00;1.80;;;;;;;;;;5103914;27;43816;-60
2022/11/20 09:11:47;;;;;;;3.65;1.80;;;;;;;;;;5105221;27;43438;-60
2022/11/20 09:14:15;;;;;;;5.38;1.90;;;;;;;;;;5109255;27;43449;-60
2022/11/20 09:16:43;;;;;;;3.08;1.55;;;;;;;;;;5102258;27;43869;-60
2022/11/20 09:19:10;;;;;;;1.90;1.70;;;;;;;;;;5105612;27;43431;-59
2022/11/20 09:21:59;;;;;;;2.45;1.73;;;;;;;;;;5108165;27;43570;-59
2022/11/20 09:24:28;;;;;;;1.80;1.70;;;;;;;;;;5103228;27;43724;-59
2022/11/20 09:26:55;;;;;;;2.10;1.80;;;;;;;;;;5105283;27;44773;-60
2022/11/20 09:29:23;;;;;;;2.28;1.80;;;;;;;;;;5104767;27;43480;-60
2022/11/20 09:31:51;;;;;;;2.00;1.80;;;;;;;;;;5106639;27;43469;-60
2022/11/20 09:34:19;;;;;;;1.48;1.38;;;;;;;;;;5100561;27;43499;-60
2022/11/20 09:36:47;;;;;;;2.00;1.70;;;;;;;;;;5110959;27;44098;-60
2022/11/20 09:39:15;;;;;;;2.60;1.92;;;;;;;;;;5105870;27;43387;-60
2022/11/20 09:41:49;;;;;;;2.03;1.90;;;;;;;;;;5107826;27;43442;-60
2022/11/20 09:44:17;;;;;;;2.17;1.83;;;;;;;;;;5103385;27;43487;-59
2022/11/20 09:46:56;;;;;;;2.47;2.28;;;;;;;;;;5109909;27;45014;-59
2022/11/20 09:49:43;;;;;;;2.28;2.08;;;;;;;;;;5107930;27;43384;-59
2022/11/20 09:52:17;;;;;;;2.78;2.20;;;;;;;;;;5106112;27;43357;-59
2022/11/20 09:54:45;;;;;;;2.88;2.17;;;;;;;;;;5099646;27;43433;-59
2022/11/20 09:57:14;;;;;;;3.13;2.22;;;;;;;;;;5110722;27;43830;-59
2022/11/20 09:59:43;;;;;;;2.50;2.30;;;;;;;;;;5110253;27;43478;-60
2022/11/20 10:02:29;;;;;;;2.10;1.90;;;;;;;;;;5105700;27;44052;-59
2022/11/20 10:05:03;;;;;;;1.90;1.80;;;;;;;;;;5105910;27;43512;-59
2022/11/20 10:07:31;;;;;;;3.38;2.05;;;;;;;;;;5103232;27;44033;-56
2022/11/20 10:10:00;;;;;;;10.57;2.22;;;;;;;;;;5110334;27;43417;-59
2022/11/20 10:12:28;;;;;;;2.60;2.17;;;;;;;;;;5094784;27;43609;-59
2022/11/20 10:15:07;;;;;;;3.75;2.22;;;;;;;;;;5108762;27;43495;-59
2022/11/20 10:17:48;;;;;;;5.35;2.05;;;;;;;;;;5104054;27;45002;-59
2022/11/20 10:20:25;;;;;;;3.13;2.15;;;;;;;;;;5108523;27;44037;-59
2022/11/20 10:23:17;;;;;;;6.47;2.17;;;;;;;;;;5103754;27;43451;-59
2022/11/20 10:25:55;;;;;;;3.60;2.28;;;;;;;;;;5109352;27;43514;-59
2022/11/20 10:28:22;;;;;;;2.92;2.20;;;;;;;;;;5110041;27;43797;-59
2022/11/20 10:30:56;;;;;;;2.95;2.20;;;;;;;;;;5112346;27;43418;-59
2022/11/20 10:33:26;;;;;;;2.90;2.38;;;;;;;;;;5109605;27;43464;-59
2022/11/20 10:36:17;;;;;;;2.47;1.80;;;;;;;;;;5105810;27;44323;-59
2022/11/20 10:38:49;;;;;;;2.75;2.08;;;;;;;;;;5112250;27;44225;-59
2022/11/20 10:41:27;;;;;;;2.03;1.88;;;;;;;;;;5107277;27;43729;-58
2022/11/20 10:44:12;;;;;;;4.78;2.00;;;;;;;;;;5111670;27;43418;-59
2022/11/20 10:46:49;;;;;;;3.72;2.03;;;;;;;;;;5100532;27;43453;-58
2022/11/20 10:49:19;;;;;;;2.30;2.10;;;;;;;;;;5111409;27;44142;-58
2022/11/20 10:52:02;;;;;;;2.38;2.17;;;;;;;;;;5092187;27;44120;-58
2022/11/20 10:54:35;;;;;;;3.10;2.20;;;;;;;;;;5108322;27;43415;-58
2022/11/20 10:57:14;;;;;;;2.00;1.90;;;;;;;;;;5110581;27;43608;-58
2022/11/20 10:59:42;;;;;;;2.58;2.03;;;;;;;;;;5107970;27;43801;-58
2022/11/20 11:02:15;;;;;;;2.22;2.03;;;;;;;;;;5105279;27;43493;-59
2022/11/20 11:04:47;;;;;;;2.60;1.90;;;;;;;;;;5102264;27;43417;-58
2022/11/20 11:07:23;;;;;;;2.35;2.15;;;;;;;;;;5100851;27;43510;-59
2022/11/20 11:09:53;;;;;;;3.72;2.33;;;;;;;;;;5099567;27;44051;-59
2022/11/20 11:12:22;;;;;;;3.22;2.30;;;;;;;;;;5099248;27;43382;-59
2022/11/20 11:14:54;;;;;;;3.53;2.38;;;;;;;;;;5109094;27;43465;-59
2022/11/20 11:17:28;;;;;;;3.70;2.70;;;;;;;;;;5104088;27;43437;-58
2022/11/20 11:20:04;;;;;;;2.88;2.58;;;;;;;;;;5107456;27;43799;-59
2022/11/20 11:22:32;;;;;;;3.28;2.53;;;;;;;;;;5107805;27;43809;-59
2022/11/20 11:25:01;;;;;;;2.92;2.50;;;;;;;;;;5107907;27;43429;-59
2022/11/20 11:27:28;;;;;;;3.00;2.80;;;;;;;;;;5104793;27;43376;-59
2022/11/20 11:30:12;;;;;;;3.72;2.65;;;;;;;;;;5107369;27;43993;-59
2022/11/20 11:32:40;;;;;;;3.72;2.40;;;;;;;;;;5108584;27;43486;-58
2022/11/20 11:35:19;;;;;;;3.60;2.45;;;;;;;;;;5107243;27;43519;-59
2022/11/20 11:37:48;;;;;;;2.67;2.47;;;;;;;;;;5108981;27;43493;-58
2022/11/20 11:40:17;;;;;;;2.53;2.33;;;;;;;;;;5107427;27;44959;-59
2022/11/20 11:43:01;;;;;;;3.13;2.40;;;;;;;;;;5110801;27;43988;-59
2022/11/20 11:45:29;;;;;;;2.75;2.13;;;;;;;;;;5109802;27;43457;-59
2022/11/20 11:47:59;;;;;;;2.50;2.17;;;;;;;;;;5106423;27;43539;-59
2022/11/20 11:50:27;;;;;;;2.67;2.40;;;;;;;;;;5106354;27;44689;-59
2022/11/20 11:53:04;;;;;;;2.38;2.17;;;;;;;;;;5102262;27;43437;-58
2022/11/20 11:55:35;;;;;;;2.85;2.08;;;;;;;;;;5107106;27;43514;-58
2022/11/20 11:58:15;;;;;;;3.72;2.30;;;;;;;;;;5097811;27;43505;-59
2022/11/20 12:01:04;;;;;;;2.50;2.30;;;;;;;;;;5106339;27;45392;-57
2022/11/20 12:03:37;;;;;;;2.05;1.95;;;;;;;;;;5097575;27;43977;-58
2022/11/20 12:06:15;;;;;;;2.58;2.38;;;;;;;;;;5105845;27;43513;-57
2022/11/20 12:09:01;;;;;;;2.95;2.40;;;;;;;;;;5109476;27;43461;-57
2022/11/20 12:11:40;;;;;;;2.20;2.00;;;;;;;;;;5102173;27;44983;-56
2022/11/20 12:14:34;;;;;;;2.45;2.22;;;;;;;;;;5098581;27;43453;-56
2022/11/20 12:17:02;;;;;;;2.30;1.83;;;;;;;;;;5096485;27;43492;-56
2022/11/20 12:19:33;;;;;;;2.20;2.00;;;;;;;;;;5104815;27;43491;-58
2022/11/20 12:22:19;;;;;;;2.42;2.22;;;;;;;;;;5101934;27;43980;-58
2022/11/20 12:24:47;;;;;;;2.20;2.00;;;;;;;;;;5105655;27;43699;-59
2022/11/20 12:27:15;;;;;;;3.08;2.03;;;;;;;;;;5104999;27;43463;-59
2022/11/20 12:29:46;;;;;;;2.50;2.17;;;;;;;;;;5106644;27;43582;-59
2022/11/20 12:32:25;;;;;;;2.20;2.10;;;;;;;;;;5105730;27;44978;-58
2022/11/20 12:35:14;;;;;;;2.50;2.30;;;;;;;;;;5105896;27;43654;-58
2022/11/20 12:38:00;;;;;;;2.33;2.13;;;;;;;;;;5102466;27;43385;-59
2022/11/20 12:40:27;;;;;;;2.00;1.90;;;;;;;;;;5104521;27;43478;-59
2022/11/20 12:45:48;;;;;;;2.47;2.00;;;;;;;;;;5105033;27;43570;-59
2022/11/20 12:48:21;;;;;;;2.58;2.00;;;;;;;;;;5101138;27;43505;-59
2022/11/20 12:51:08;;;;;;;2.10;2.00;;;;;;;;;;5105315;27;43919;-59
2022/11/20 12:53:53;;;;;;;2.05;1.90;;;;;;;;;;5108424;27;44016;-60
2022/11/20 12:56:24;;;;;;;2.00;1.90;;;;;;;;;;5105769;27;44459;-59
2022/11/20 12:59:03;;;;;;;2.60;2.40;;;;;;;;;;5107397;27;43421;-59
2022/11/20 13:01:40;;;;;;;2.10;2.00;;;;;;;;;;5109078;27;43443;-59
2022/11/20 13:04:17;;;;;;;1.95;1.85;;;;;;;;;;5105024;27;43850;-59
2022/11/20 13:06:45;;;;;;;2.25;2.05;;;;;;;;;;5110927;27;44127;-59
2022/11/20 13:09:14;;;;;;;2.30;2.10;;;;;;;;;;5105061;27;43360;-59
2022/11/20 13:11:47;;;;;;;2.17;2.00;;;;;;;;;;5105619;27;43501;-58
2022/11/20 13:14:21;;;;;;;2.17;1.98;;;;;;;;;;5109227;27;43745;-59
2022/11/20 13:16:53;;;;;;;2.80;2.30;;;;;;;;;;5102838;27;43502;-59
2022/11/20 13:19:21;;;;;;;2.40;2.20;;;;;;;;;;5107802;27;43465;-59
2022/11/20 13:21:50;;;;;;;2.47;2.13;;;;;;;;;;5108706;27;43633;-60
2022/11/20 13:24:26;;;;;;;1.98;1.70;;;;;;;;;;5108455;27;43823;-59
2022/11/20 13:27:02;;;;;;;2.45;2.13;;;;;;;;;;5093693;27;43509;-60
2022/11/20 13:29:31;;;;;;;1.95;1.80;;;;;;;;;;5103854;27;43394;-60
2022/11/20 13:32:32;;;;;;;1.92;1.75;;;;;;;;;;5104500;27;43422;-59
2022/11/20 13:35:03;;;;;;;2.17;1.98;;;;;;;;;;5102475;27;43805;-58
2022/11/20 13:37:35;;;;;;;2.03;1.85;;;;;;;;;;5114161;27;43546;-59
2022/11/20 13:40:09;;;;;;;1.92;1.80;;;;;;;;;;5101316;27;43501;-59
2022/11/20 13:42:39;;;;;;;2.30;1.83;;;;;;;;;;5104691;27;43499;-59
2022/11/20 13:45:11;;;;;;;2.15;1.95;;;;;;;;;;5104383;27;43788;-60
2022/11/20 13:47:47;;;;;;;2.55;1.70;;;;;;;;;;5104226;27;43817;-60
2022/11/20 13:50:15;;;;;;;1.83;1.73;;;;;;;;;;5104193;27;43494;-60
2022/11/20 13:52:43;;;;;;;1.83;1.73;;;;;;;;;;5101760;27;43447;-59
2022/11/20 13:55:20;;;;;;;1.83;1.73;;;;;;;;;;5105194;27;44001;-59
2022/11/20 13:57:54;;;;;;;1.85;1.75;;;;;;;;;;5104284;27;43703;-59
2022/11/20 14:00:23;;;;;;;1.80;1.70;;;;;;;;;;5103840;27;43434;-60
2022/11/20 14:03:02;;;;;;;1.85;1.75;;;;;;;;;;5105061;27;43461;-59
2022/11/20 14:05:35;;;;;;;1.75;1.63;;;;;;;;;;5096399;27;43783;-59
2022/11/20 14:08:07;;;;;;;2.33;1.80;;;;;;;;;;5103361;27;43536;-59
2022/11/20 14:10:38;;;;;;;1.95;1.85;;;;;;;;;;5098476;27;43428;-59
2022/11/20 14:13:19;;;;;;;1.80;1.70;;;;;;;;;;5104133;27;44027;-59
2022/11/20 14:15:47;;;;;;;;;;;;;;;;;;5104951;27;43789;-59
2022/11/20 14:18:19;;;;;;;1.92;1.70;;;;;;;;;;5103522;27;43431;-59
2022/11/20 14:20:47;;;;;;;1.98;1.67;;;;;;;;;;5105138;27;43483;-59
2022/11/20 14:23:24;;;;;;;1.60;1.50;;;;;;;;;;5104137;27;43624;-59
2022/11/20 14:25:56;;;;;;;1.80;1.70;;;;;;;;;;5103535;27;44979;-59
2022/11/20 14:28:31;;;;;;;1.90;1.80;;;;;;;;;;5103550;27;43444;-59
2022/11/20 14:30:59;;;;;;;1.80;1.70;;;;;;;;;;5101490;27;43421;-59
2022/11/20 14:33:27;;;;;;;2.45;1.67;;;;;;;;;;5098259;27;43586;-58
2022/11/20 14:35:57;;;;;;;2.15;1.98;;;;;;;;;;5102676;27;43796;-59
2022/11/20 14:38:26;;;;;;;1.70;1.60;;;;;;;;;;5104367;27;43434;-59
2022/11/20 14:40:54;;;;;;;2.00;1.90;;;;;;;;;;5086922;27;43388;-59
2022/11/20 14:43:26;;;;;;;1.65;1.55;;;;;;;;;;5103059;27;43457;-59
2022/11/20 14:45:59;;;;;;;1.70;1.60;;;;;;;;;;5103036;27;45012;-59
2022/11/20 14:48:47;;;;;;;2.50;1.70;;;;;;;;;;5102393;27;43663;-59
2022/11/20 14:51:32;;;;;;;1.55;1.45;;;;;;;;;;5103443;27;43442;-57
2022/11/20 14:54:16;;;;;;;1.58;1.48;;;;;;;;;;5099928;27;43519;-59
2022/11/20 14:57:03;;;;;;;1.70;1.60;;;;;;;;;;5096849;27;43865;-59
2022/11/20 14:59:32;;;;;;;1.85;1.75;;;;;;;;;;5099511;27;43739;-59
2022/11/20 15:02:08;;;;;;;1.95;1.80;;;;;;;;;;5087548;27;43412;-59
2022/11/20 15:04:47;;;;;;;2.75;1.75;;;;;;;;;;5103541;27;43466;-59
2022/11/20 15:07:29;;;;;;;1.73;1.63;;;;;;;;;;5102402;27;44703;-59
2022/11/20 15:10:01;;;;;;;2.20;1.50;;;;;;;;;;5102245;27;43935;-59
2022/11/20 15:12:29;;;;;;;1.70;1.60;;;;;;;;;;5095935;27;43411;-59